Time;durP1;ratioP1;P1;durP2;ratioP2;P2;SDS_P1;SDS_P2;PMS_P1;PMS_P2;Temp;Humidity;BMP_temperature;BMP_pressure;BME280_temperature;BME280_humidity;BME280_pressure;Samples;Min_cycle;Max_cycle;Signal;HPM_P1;HPM_P2
2023/12/18 00:01:10;;;;;;;22.50;6.93;;;7.60;99.90;;;;;;4991903;28;20039;-78
2023/12/18 00:03:35;;;;;;;15.20;6.03;;;7.60;99.90;;;;;;4991269;28;20053;-78
2023/12/18 00:06:01;;;;;;;15.27;5.97;;;7.60;99.90;;;;;;4991303;28;20125;-77
2023/12/18 00:08:27;;;;;;;18.70;6.18;;;7.60;99.90;;;;;;4992744;28;20050;-78
2023/12/18 00:10:52;;;;;;;20.33;6.47;;;7.60;99.90;;;;;;4992945;28;20066;-78
2023/12/18 00:13:18;;;;;;;14.55;6.20;;;7.60;99.90;;;;;;4991670;28;20459;-77
2023/12/18 00:15:44;;;;;;;17.52;5.65;;;7.60;99.90;;;;;;4991524;28;20034;-78
2023/12/18 00:18:09;;;;;;;18.98;6.00;;;7.60;99.90;;;;;;4990310;28;20397;-77
2023/12/18 00:20:35;;;;;;;13.77;5.65;;;7.60;99.90;;;;;;4986798;28;20056;-77
2023/12/18 00:23:01;;;;;;;16.77;6.20;;;7.60;99.90;;;;;;4989274;28;20038;-76
2023/12/18 00:25:27;;;;;;;12.45;5.57;;;7.60;99.90;;;;;;4982279;28;20526;-77
2023/12/18 00:27:52;;;;;;;20.45;6.55;;;7.60;99.90;;;;;;4988990;28;20043;-77
2023/12/18 00:30:18;;;;;;;14.80;6.35;;;7.70;99.90;;;;;;4988767;28;20122;-78
2023/12/18 00:32:43;;;;;;;17.05;6.07;;;7.60;99.90;;;;;;4992263;28;20030;-78
2023/12/18 00:35:09;;;;;;;19.92;6.55;;;7.60;99.90;;;;;;4993999;28;20395;-80
2023/12/18 00:37:35;;;;;;;15.82;6.45;;;7.70;99.90;;;;;;4990201;28;20042;-77
2023/12/18 00:40:00;;;;;;;17.60;6.03;;;7.70;99.90;;;;;;4992189;28;20510;-77
2023/12/18 00:42:26;;;;;;;20.75;6.88;;;7.60;99.90;;;;;;4991889;28;20045;-78
2023/12/18 00:44:51;;;;;;;14.75;5.97;;;7.60;99.90;;;;;;4980821;28;20030;-78
2023/12/18 00:47:18;;;;;;;20.60;5.93;;;7.70;99.90;;;;;;4991504;28;20084;-77
2023/12/18 00:49:44;;;;;;;16.75;5.75;;;7.70;99.90;;;;;;4977339;28;20483;-77
2023/12/18 00:52:09;;;;;;;21.35;6.90;;;7.70;99.90;;;;;;4972051;28;20038;-77
2023/12/18 00:54:35;;;;;;;14.98;5.80;;;7.60;99.90;;;;;;4979937;28;20114;-77
2023/12/18 00:57:00;;;;;;;12.93;6.35;;;7.60;99.90;;;;;;4991528;28;20038;-78
2023/12/18 00:59:26;;;;;;;16.13;6.35;;;7.60;99.90;;;;;;4992580;28;20121;-77
2023/12/18 01:01:51;;;;;;;15.68;6.03;;;7.60;99.90;;;;;;4992172;28;20030;-78
2023/12/18 01:04:17;;;;;;;14.65;6.85;;;7.60;99.90;;;;;;4975642;28;20039;-79
2023/12/18 01:06:42;;;;;;;20.77;6.10;;;7.60;99.90;;;;;;4974788;28;20176;-77
2023/12/18 01:09:08;;;;;;;18.67;5.25;;;7.60;99.90;;;;;;4985569;28;20035;-77
2023/12/18 01:11:34;;;;;;;18.55;6.35;;;7.60;99.90;;;;;;4989111;28;20426;-77
2023/12/18 01:14:00;;;;;;;14.45;6.03;;;7.60;99.90;;;;;;4991186;28;20118;-78
2023/12/18 01:16:26;;;;;;;13.50;5.50;;;7.60;99.90;;;;;;4991318;28;20482;-76
2023/12/18 01:18:51;;;;;;;10.18;5.28;;;7.60;99.90;;;;;;4990530;28;20042;-78
2023/12/18 01:21:17;;;;;;;17.23;6.32;;;7.60;99.90;;;;;;4990184;28;20097;-77
2023/12/18 01:23:42;;;;;;;16.75;6.53;;;7.70;99.90;;;;;;4989481;28;20484;-78
2023/12/18 01:26:08;;;;;;;18.70;6.60;;;7.70;99.90;;;;;;4990562;28;20398;-77
2023/12/18 01:28:34;;;;;;;14.32;5.93;;;7.70;99.90;;;;;;4988370;28;20231;-78
2023/12/18 01:30:59;;;;;;;16.45;6.50;;;7.70;99.90;;;;;;4989479;28;20034;-78
2023/12/18 01:33:25;;;;;;;24.05;6.72;;;7.70;99.90;;;;;;4990228;28;20030;-78
2023/12/18 01:35:50;;;;;;;16.85;5.70;;;7.70;99.90;;;;;;4990761;28;20035;-77
2023/12/18 01:38:16;;;;;;;15.80;6.72;;;7.70;99.90;;;;;;4988996;28;20046;-77
2023/12/18 01:40:41;;;;;;;13.63;5.55;;;7.70;99.90;;;;;;4990405;28;20064;-78
2023/12/18 01:43:26;;;;;;;16.77;5.57;;;7.70;99.90;;;;;;4991580;28;20069;-78
2023/12/18 01:46:00;;;;;;;15.23;5.25;;;7.70;99.90;;;;;;4986503;28;20109;-78
2023/12/18 01:48:26;;;;;;;15.23;5.13;;;7.70;99.90;;;;;;4991047;28;20034;-77
2023/12/18 01:50:57;;;;;;;14.43;5.47;;;7.70;99.90;;;;;;4989823;28;20030;-78
2023/12/18 01:53:31;;;;;;;12.38;4.85;;;7.60;99.90;;;;;;4991357;28;20023;-78
2023/12/18 01:55:57;;;;;;;13.18;5.75;;;7.70;99.90;;;;;;4990186;28;20102;-77
2023/12/18 01:58:24;;;;;;;17.15;4.80;;;7.70;99.90;;;;;;4989375;28;20030;-78
2023/12/18 02:00:51;;;;;;;17.85;5.88;;;7.70;99.90;;;;;;4990545;28;20445;-77
2023/12/18 02:03:19;;;;;;;15.85;6.35;;;7.70;99.90;;;;;;4990796;28;20454;-76
2023/12/18 02:05:46;;;;;;;12.85;5.10;;;7.70;99.90;;;;;;4952747;28;20062;-79
2023/12/18 02:08:12;;;;;;;14.88;5.50;;;7.70;99.90;;;;;;4981188;28;20045;-77
2023/12/18 02:10:38;;;;;;;14.20;4.88;;;7.70;99.90;;;;;;4990963;28;20113;-79
2023/12/18 02:13:04;;;;;;;24.88;7.18;;;7.70;99.90;;;;;;4989505;28;20026;-77
2023/12/18 02:15:29;;;;;;;14.05;6.65;;;7.70;99.90;;;;;;4989043;28;20031;-78
2023/12/18 02:17:55;;;;;;;14.25;5.53;;;7.70;99.90;;;;;;4990523;28;20085;-77
2023/12/18 02:20:20;;;;;;;21.10;5.97;;;7.70;99.90;;;;;;4988584;28;20490;-78
2023/12/18 02:22:46;;;;;;;15.02;5.35;;;7.70;99.90;;;;;;4990932;28;20049;-78
2023/12/18 02:25:14;;;;;;;14.60;5.75;;;7.70;99.90;;;;;;4989555;28;20042;-79
2023/12/18 02:27:40;;;;;;;18.20;6.65;;;7.80;99.90;;;;;;4989290;28;20059;-77
2023/12/18 02:30:07;;;;;;;15.02;5.63;;;7.80;99.90;;;;;;4971762;28;20190;-78
2023/12/18 02:32:35;;;;;;;19.60;6.05;;;7.80;99.90;;;;;;4977821;28;20537;-78
2023/12/18 02:35:00;;;;;;;12.43;4.88;;;7.70;99.90;;;;;;4987748;28;20034;-77
2023/12/18 02:37:27;;;;;;;14.40;5.80;;;7.70;99.90;;;;;;4993757;28;20791;-78
2023/12/18 02:39:54;;;;;;;15.63;5.20;;;7.80;99.90;;;;;;4994065;28;20057;-77
2023/12/18 02:42:20;;;;;;;21.42;7.00;;;7.70;99.90;;;;;;4994346;28;20034;-78
2023/12/18 02:44:45;;;;;;;16.25;5.10;;;7.80;99.90;;;;;;4994567;28;20081;-76
2023/12/18 02:47:11;;;;;;;14.90;5.07;;;7.80;99.90;;;;;;4994633;28;20058;-78
2023/12/18 02:49:36;;;;;;;15.60;5.22;;;7.80;99.90;;;;;;4994079;28;20035;-79
2023/12/18 02:52:02;;;;;;;11.18;5.05;;;7.80;99.90;;;;;;4992656;28;20556;-78
2023/12/18 02:54:27;;;;;;;16.00;5.93;;;7.80;99.90;;;;;;4993038;28;20065;-77
2023/12/18 02:56:53;;;;;;;10.90;5.10;;;7.70;99.90;;;;;;4994209;28;20569;-79
2023/12/18 02:59:19;;;;;;;16.25;5.80;;;7.80;99.90;;;;;;4993227;28;20383;-77
2023/12/18 03:01:44;;;;;;;13.63;4.88;;;7.80;99.90;;;;;;4993584;28;20088;-78
2023/12/18 03:04:10;;;;;;;14.13;5.18;;;7.80;99.90;;;;;;4990748;28;20150;-78
2023/12/18 03:06:35;;;;;;;14.07;5.55;;;7.80;99.90;;;;;;4985050;28;20050;-78
2023/12/18 03:09:01;;;;;;;13.55;4.78;;;7.80;99.90;;;;;;4994463;28;20047;-77
2023/12/18 03:11:26;;;;;;;19.55;6.10;;;7.80;99.90;;;;;;4994476;28;20034;-80
2023/12/18 03:13:52;;;;;;;23.30;6.22;;;7.80;99.90;;;;;;4991196;28;20155;-77
2023/12/18 03:16:17;;;;;;;15.52;4.78;;;7.80;99.90;;;;;;4993232;28;20430;-77
2023/12/18 03:18:43;;;;;;;20.70;5.93;;;7.80;99.90;;;;;;4986349;28;20398;-79
2023/12/18 03:21:10;;;;;;;19.55;4.90;;;7.80;99.90;;;;;;4973069;28;20106;-77
2023/12/18 03:23:36;;;;;;;15.98;5.38;;;7.80;99.90;;;;;;4988405;28;20664;-78
2023/12/18 03:26:01;;;;;;;27.27;5.22;;;7.80;99.90;;;;;;4992430;28;20129;-75
2023/12/18 03:28:27;;;;;;;11.70;4.57;;;7.80;99.90;;;;;;4987478;28;20058;-77
2023/12/18 03:30:52;;;;;;;9.70;5.07;;;7.80;99.90;;;;;;4988532;28;20409;-78
2023/12/18 03:33:18;;;;;;;24.83;5.85;;;7.90;99.90;;;;;;4990046;28;20052;-77
2023/12/18 03:35:44;;;;;;;15.65;5.30;;;7.80;99.90;;;;;;4990542;28;20075;-78
2023/12/18 03:38:10;;;;;;;14.23;4.57;;;7.90;99.90;;;;;;4994047;28;20479;-77
2023/12/18 03:40:35;;;;;;;13.77;5.20;;;7.90;99.90;;;;;;4991953;28;20050;-79
2023/12/18 03:43:01;;;;;;;11.88;5.07;;;7.90;99.90;;;;;;4993333;28;20042;-77
2023/12/18 03:45:27;;;;;;;18.38;7.18;;;7.90;99.90;;;;;;4972446;28;20046;-76
2023/12/18 03:47:53;;;;;;;15.63;5.43;;;7.90;99.90;;;;;;4984776;28;20035;-78
2023/12/18 03:50:18;;;;;;;16.20;5.55;;;7.90;99.90;;;;;;4991106;28;20046;-77
2023/12/18 03:52:44;;;;;;;12.07;5.28;;;7.90;99.90;;;;;;4991219;28;20034;-78
2023/12/18 03:55:09;;;;;;;21.38;6.93;;;7.90;99.90;;;;;;4993239;28;20084;-78
2023/12/18 03:57:35;;;;;;;17.33;5.45;;;7.90;99.90;;;;;;4992013;28;20092;-77
2023/12/18 04:00:01;;;;;;;22.23;5.30;;;8.00;99.90;;;;;;4992474;28;20026;-78
2023/12/18 04:02:26;;;;;;;15.65;4.88;;;7.90;99.90;;;;;;4987256;28;20027;-79
2023/12/18 04:04:54;;;;;;;23.42;5.07;;;7.90;99.90;;;;;;4973230;28;20035;-77
2023/12/18 04:07:20;;;;;;;10.55;4.72;;;8.00;99.90;;;;;;4984267;28;20474;-78
2023/12/18 04:09:46;;;;;;;15.90;4.97;;;7.90;99.90;;;;;;4991209;28;20057;-78
2023/12/18 04:12:11;;;;;;;19.02;5.63;;;8.00;99.90;;;;;;4989792;28;20548;-78
2023/12/18 04:14:37;;;;;;;14.23;4.88;;;7.90;99.90;;;;;;4986416;28;20418;-77
2023/12/18 04:17:03;;;;;;;11.80;4.88;;;7.90;99.90;;;;;;4993306;28;20053;-76
2023/12/18 04:19:28;;;;;;;19.75;5.97;;;7.90;99.90;;;;;;4991950;28;20041;-79
2023/12/18 04:21:54;;;;;;;28.58;6.43;;;7.90;99.90;;;;;;4992488;28;20042;-78
2023/12/18 04:24:19;;;;;;;16.80;5.95;;;7.90;99.90;;;;;;4991650;28;20034;-76
2023/12/18 04:26:45;;;;;;;11.60;4.95;;;7.90;99.90;;;;;;4985500;28;20035;-77
2023/12/18 04:29:11;;;;;;;18.88;5.28;;;7.90;99.90;;;;;;4986840;28;20030;-78
2023/12/18 04:31:36;;;;;;;16.45;5.57;;;8.00;99.90;;;;;;4991829;28;20038;-77
2023/12/18 04:34:02;;;;;;;9.82;4.78;;;7.90;99.90;;;;;;4991358;28;20454;-76
2023/12/18 04:36:27;;;;;;;15.00;5.03;;;7.90;99.90;;;;;;4990960;28;20041;-78
2023/12/18 04:38:53;;;;;;;12.10;5.22;;;7.90;99.90;;;;;;4992324;28;20073;-78
2023/12/18 04:41:22;;;;;;;14.65;6.15;;;8.00;99.90;;;;;;4991143;28;20046;-77
2023/12/18 04:43:49;;;;;;;14.68;4.75;;;7.90;99.90;;;;;;4984482;28;20117;-77
2023/12/18 04:46:14;;;;;;;10.05;5.03;;;8.00;99.90;;;;;;4970207;28;20027;-78
2023/12/18 04:48:41;;;;;;;15.95;4.80;;;8.00;99.90;;;;;;4970479;28;20134;-77
2023/12/18 04:51:07;;;;;;;15.05;4.70;;;8.00;99.90;;;;;;4972867;28;20110;-78
2023/12/18 04:53:35;;;;;;;16.58;6.20;;;8.00;99.90;;;;;;4987239;28;20050;-76
2023/12/18 04:56:01;;;;;;;13.32;5.32;;;8.00;99.90;;;;;;4994455;28;20049;-78
2023/12/18 04:58:27;;;;;;;16.52;4.78;;;8.00;99.90;;;;;;4989702;28;20486;-80
2023/12/18 05:00:52;;;;;;;14.57;4.93;;;8.00;99.90;;;;;;4989993;28;20043;-77
2023/12/18 05:03:18;;;;;;;17.88;6.82;;;8.00;99.90;;;;;;4985138;28;20121;-77
2023/12/18 05:05:43;;;;;;;18.95;5.88;;;8.00;99.90;;;;;;4982468;28;20041;-77
2023/12/18 05:08:09;;;;;;;17.67;5.68;;;7.90;99.90;;;;;;4990053;28;20033;-77
2023/12/18 05:10:34;;;;;;;18.00;6.60;;;8.00;99.90;;;;;;4990667;28;20026;-78
2023/12/18 05:13:00;;;;;;;14.05;5.55;;;8.00;99.90;;;;;;4992663;28;20034;-78
2023/12/18 05:15:26;;;;;;;13.05;5.10;;;7.90;99.90;;;;;;4992539;28;20029;-78
2023/12/18 05:17:51;;;;;;;14.68;4.57;;;7.90;99.90;;;;;;4989848;28;20145;-77
2023/12/18 05:20:17;;;;;;;17.70;5.90;;;7.90;99.90;;;;;;4989904;28;20045;-77
2023/12/18 05:22:42;;;;;;;15.10;6.10;;;8.00;99.90;;;;;;4991766;28;20066;-78
2023/12/18 05:25:12;;;;;;;21.17;5.57;;;8.00;99.90;;;;;;4991602;28;20164;-77
2023/12/18 05:27:37;;;;;;;13.43;5.03;;;7.90;99.90;;;;;;4989617;28;20050;-78
2023/12/18 05:30:03;;;;;;;18.23;5.47;;;8.00;99.90;;;;;;4987976;28;20046;-77
2023/12/18 05:32:29;;;;;;;13.32;5.47;;;8.00;99.90;;;;;;4990624;28;20038;-78
2023/12/18 05:34:55;;;;;;;19.77;6.05;;;8.00;99.90;;;;;;4992171;28;20035;-77
2023/12/18 05:37:21;;;;;;;14.10;7.32;;;8.00;99.90;;;;;;4991674;28;20466;-78
2023/12/18 05:39:47;;;;;;;20.45;4.90;;;8.00;99.90;;;;;;4991453;28;20038;-78
2023/12/18 05:42:14;;;;;;;21.77;6.97;;;8.00;99.90;;;;;;4991568;28;20585;-77
2023/12/18 05:44:40;;;;;;;18.42;5.85;;;8.00;99.90;;;;;;4987214;28;20038;-78
2023/12/18 05:47:05;;;;;;;22.40;5.75;;;8.00;99.90;;;;;;4983042;28;20034;-78
2023/12/18 05:49:31;;;;;;;12.32;5.00;;;8.00;99.90;;;;;;4971964;28;20031;-77
2023/12/18 05:51:57;;;;;;;18.02;6.22;;;8.00;99.90;;;;;;4985955;28;20039;-77
2023/12/18 05:54:22;;;;;;;19.08;5.63;;;8.00;99.90;;;;;;4991580;28;20042;-78
2023/12/18 05:56:48;;;;;;;13.85;5.75;;;8.00;99.90;;;;;;4992515;28;20053;-78
2023/12/18 05:59:13;;;;;;;17.20;6.55;;;8.00;99.90;;;;;;4985030;28;20035;-79
2023/12/18 06:01:39;;;;;;;14.20;5.55;;;8.00;99.90;;;;;;4972680;28;20058;-77
2023/12/18 06:04:05;;;;;;;12.27;5.90;;;8.00;99.90;;;;;;4971856;28;20023;-77
2023/12/18 06:06:30;;;;;;;17.83;5.85;;;8.00;99.90;;;;;;4985989;28;20030;-77
2023/12/18 06:08:56;;;;;;;9.95;5.38;;;8.00;99.90;;;;;;4990929;28;20247;-77
2023/12/18 06:11:21;;;;;;;14.70;5.07;;;8.00;99.90;;;;;;4993415;28;20038;-78
2023/12/18 06:13:47;;;;;;;17.13;6.70;;;8.00;99.90;;;;;;4995202;28;20033;-78
2023/12/18 06:16:12;;;;;;;17.25;5.78;;;8.10;99.90;;;;;;4991023;28;20090;-78
2023/12/18 06:18:38;;;;;;;17.27;7.82;;;8.10;99.90;;;;;;4990432;28;20038;-78
2023/12/18 06:21:05;;;;;;;13.95;5.28;;;8.10;99.90;;;;;;4994433;28;20039;-77
2023/12/18 06:23:31;;;;;;;16.08;5.78;;;8.00;99.90;;;;;;4992758;28;20057;-77
2023/12/18 06:25:56;;;;;;;12.43;6.40;;;8.10;99.90;;;;;;4992167;28;20104;-77
2023/12/18 06:28:22;;;;;;;14.80;5.95;;;8.00;99.90;;;;;;4988046;28;20035;-77
2023/12/18 06:30:47;;;;;;;23.90;7.35;;;8.10;99.90;;;;;;4974784;28;20038;-78
2023/12/18 06:33:14;;;;;;;10.35;5.00;;;8.00;99.90;;;;;;4978793;28;20046;-80
2023/12/18 06:35:40;;;;;;;14.10;5.38;;;8.10;99.90;;;;;;4988328;28;20394;-77
2023/12/18 06:38:06;;;;;;;18.17;6.28;;;8.10;99.90;;;;;;4990331;28;20030;-76
2023/12/18 06:40:31;;;;;;;13.38;5.93;;;8.00;99.90;;;;;;4990797;28;20516;-77
2023/12/18 06:42:57;;;;;;;18.45;6.47;;;8.10;99.90;;;;;;4992335;28;20030;-76
2023/12/18 06:45:22;;;;;;;15.40;5.13;;;8.10;99.90;;;;;;4986492;28;20117;-77
2023/12/18 06:47:48;;;;;;;17.77;6.07;;;8.10;99.90;;;;;;4990691;28;20756;-79
2023/12/18 06:50:14;;;;;;;16.38;6.32;;;8.10;99.90;;;;;;4993278;28;20026;-76
2023/12/18 06:52:41;;;;;;;12.40;5.10;;;8.00;99.90;;;;;;4991676;28;20398;-79
2023/12/18 06:55:06;;;;;;;14.13;5.95;;;8.10;99.90;;;;;;4994041;28;20038;-78
2023/12/18 06:57:33;;;;;;;14.98;5.90;;;8.10;99.90;;;;;;4994517;28;20034;-78
2023/12/18 06:59:59;;;;;;;19.85;5.93;;;8.10;99.90;;;;;;4995728;28;20031;-78
2023/12/18 07:02:26;;;;;;;17.15;6.30;;;8.10;99.90;;;;;;4995552;28;20030;-78
2023/12/18 07:04:52;;;;;;;16.65;7.45;;;8.10;99.90;;;;;;4974515;28;20035;-76
2023/12/18 07:07:18;;;;;;;15.27;5.82;;;8.10;99.90;;;;;;4975640;28;20043;-79
2023/12/18 07:09:44;;;;;;;19.35;5.82;;;8.10;99.90;;;;;;4990626;28;20041;-77
2023/12/18 07:12:10;;;;;;;14.50;6.13;;;8.10;99.90;;;;;;4994483;28;20173;-77
2023/12/18 07:14:38;;;;;;;18.67;7.35;;;8.10;99.90;;;;;;4992303;28;20058;-77
2023/12/18 07:17:03;;;;;;;11.10;5.25;;;8.10;99.90;;;;;;4993619;28;20058;-77
2023/12/18 07:19:29;;;;;;;22.05;7.00;;;8.10;99.90;;;;;;4995258;28;20030;-78
2023/12/18 07:21:54;;;;;;;11.98;5.40;;;8.10;99.90;;;;;;4994354;28;20452;-79
2023/12/18 07:24:20;;;;;;;19.63;6.30;;;8.10;99.90;;;;;;4993274;28;20034;-77
2023/12/18 07:26:45;;;;;;;18.95;6.60;;;8.10;99.90;;;;;;4993265;28;20039;-78
2023/12/18 07:29:11;;;;;;;16.52;6.00;;;8.10;99.90;;;;;;4987836;28;20061;-79
2023/12/18 07:31:37;;;;;;;18.10;5.40;;;8.10;99.90;;;;;;4993665;28;20038;-77
2023/12/18 07:34:03;;;;;;;22.45;5.78;;;8.20;99.90;;;;;;4991145;28;20077;-75
2023/12/18 07:36:29;;;;;;;14.65;5.28;;;8.20;99.90;;;;;;4991983;28;20042;-77
2023/12/18 07:38:54;;;;;;;20.83;6.55;;;8.10;99.90;;;;;;4992166;28;20046;-76
2023/12/18 07:41:20;;;;;;;13.88;5.63;;;8.10;99.90;;;;;;4992421;28;20066;-76
2023/12/18 07:43:45;;;;;;;13.80;6.07;;;8.10;99.90;;;;;;4984323;28;20518;-78
2023/12/18 07:46:18;;;;;;;13.82;6.38;;;8.10;99.90;;;;;;4984756;28;20480;-78
2023/12/18 07:48:47;;;;;;;19.88;7.13;;;8.10;99.90;;;;;;4975047;28;20054;-75
2023/12/18 07:51:13;;;;;;;24.17;6.35;;;8.10;99.90;;;;;;4972430;28;20379;-77
2023/12/18 07:53:39;;;;;;;19.67;6.43;;;8.10;99.90;;;;;;4984012;28;20045;-77
2023/12/18 07:56:05;;;;;;;20.25;7.45;;;8.10;99.90;;;;;;4992528;28;20685;-76
2023/12/18 07:58:30;;;;;;;19.65;6.78;;;8.10;99.90;;;;;;4979085;28;20121;-77
2023/12/18 08:00:56;;;;;;;20.75;6.70;;;8.00;99.90;;;;;;4973780;28;20054;-78
2023/12/18 08:03:22;;;;;;;16.25;6.38;;;8.00;99.90;;;;;;4974955;28;20110;-77
2023/12/18 08:05:47;;;;;;;17.08;5.80;;;8.10;99.90;;;;;;4975602;28;20487;-79
2023/12/18 08:08:13;;;;;;;11.20;5.63;;;8.00;99.90;;;;;;4980446;28;20042;-78
2023/12/18 08:10:38;;;;;;;17.13;6.30;;;8.00;99.90;;;;;;4974318;28;20065;-77
2023/12/18 08:13:05;;;;;;;18.38;6.18;;;8.10;99.90;;;;;;4970570;28;20129;-78
2023/12/18 08:15:31;;;;;;;18.75;6.57;;;8.10;99.90;;;;;;4985710;28;20401;-78
2023/12/18 08:17:57;;;;;;;12.32;5.38;;;8.10;99.90;;;;;;4990286;28;20533;-77
2023/12/18 08:20:22;;;;;;;20.70;6.72;;;8.10;99.90;;;;;;4988815;28;20030;-78
2023/12/18 08:22:48;;;;;;;14.00;5.85;;;8.10;99.90;;;;;;4990573;28;20034;-77
2023/12/18 08:25:14;;;;;;;14.02;6.30;;;8.10;99.90;;;;;;4990760;28;20169;-79
2023/12/18 08:27:40;;;;;;;15.45;6.40;;;8.00;99.90;;;;;;4993241;28;20034;-78
2023/12/18 08:30:08;;;;;;;21.77;6.65;;;8.00;99.90;;;;;;4993718;28;20050;-77
2023/12/18 08:32:34;;;;;;;14.23;6.03;;;8.10;99.90;;;;;;4989505;28;20567;-77
2023/12/18 08:35:00;;;;;;;13.68;5.50;;;8.00;99.90;;;;;;4990101;28;20134;-76
2023/12/18 08:37:29;;;;;;;18.20;6.75;;;8.00;99.90;;;;;;4992368;28;20494;-78
2023/12/18 08:39:55;;;;;;;13.77;5.63;;;8.00;99.90;;;;;;4990795;28;20034;-77
2023/12/18 08:42:22;;;;;;;16.17;6.70;;;8.10;99.90;;;;;;4988716;28;20113;-77
2023/12/18 08:44:48;;;;;;;13.95;5.75;;;8.10;99.90;;;;;;4987367;28;20420;-76
2023/12/18 08:47:13;;;;;;;15.13;6.03;;;8.10;99.90;;;;;;4979740;28;20136;-77
2023/12/18 08:49:39;;;;;;;13.02;6.38;;;8.10;99.90;;;;;;4974901;28;20053;-78
2023/12/18 08:52:05;;;;;;;15.40;6.22;;;8.10;99.90;;;;;;4979853;28;20049;-77
2023/12/18 08:54:30;;;;;;;15.27;5.85;;;8.20;99.90;;;;;;4988818;28;20047;-80
2023/12/18 08:56:56;;;;;;;13.57;5.68;;;8.10;99.90;;;;;;4979265;28;20025;-77
2023/12/18 08:59:21;;;;;;;16.20;6.60;;;8.20;99.90;;;;;;4989622;28;20089;-77
2023/12/18 09:01:47;;;;;;;17.88;6.65;;;8.20;99.90;;;;;;4990586;28;20058;-77
2023/12/18 09:04:13;;;;;;;13.27;6.15;;;8.30;99.90;;;;;;4989800;28;20049;-78
2023/12/18 09:06:39;;;;;;;15.45;5.85;;;8.30;99.90;;;;;;4992967;28;20057;-78
2023/12/18 09:09:05;;;;;;;17.60;5.28;;;8.20;99.90;;;;;;4991428;28;20035;-78
2023/12/18 09:11:33;;;;;;;16.90;6.93;;;8.20;99.90;;;;;;4990220;28;20049;-77
2023/12/18 09:14:00;;;;;;;18.92;5.50;;;8.30;99.90;;;;;;4990114;28;20479;-76
2023/12/18 09:16:26;;;;;;;17.58;6.05;;;8.30;99.90;;;;;;4992768;28;20738;-78
2023/12/18 09:18:52;;;;;;;15.52;5.30;;;8.30;99.90;;;;;;4983947;28;20027;-78
2023/12/18 09:21:17;;;;;;;14.50;5.88;;;8.30;99.90;;;;;;4987669;28;20038;-77
2023/12/18 09:23:44;;;;;;;24.48;6.00;;;8.30;99.90;;;;;;4992423;28;20030;-78
2023/12/18 09:26:12;;;;;;;14.88;5.95;;;8.30;99.90;;;;;;4991148;28;20033;-78
2023/12/18 09:28:38;;;;;;;16.77;6.28;;;8.30;99.90;;;;;;4984398;28;20050;-79
2023/12/18 09:31:05;;;;;;;14.20;5.38;;;8.30;99.90;;;;;;4975063;28;20034;-76
2023/12/18 09:33:31;;;;;;;14.80;6.40;;;8.30;99.90;;;;;;4990474;28;20566;-77
2023/12/18 09:35:57;;;;;;;14.27;5.75;;;8.40;99.90;;;;;;4990672;28;20106;-77
2023/12/18 09:38:23;;;;;;;13.38;6.22;;;8.40;99.90;;;;;;4982100;28;20062;-79
2023/12/18 09:40:48;;;;;;;16.45;5.68;;;8.40;99.90;;;;;;4986696;28;20105;-78
2023/12/18 09:43:17;;;;;;;19.33;6.93;;;8.50;99.90;;;;;;4979869;28;20051;-80
2023/12/18 09:45:47;;;;;;;14.50;5.78;;;8.40;99.90;;;;;;4984666;28;20094;-75
2023/12/18 09:48:14;;;;;;;12.90;5.78;;;8.40;99.90;;;;;;4982053;28;20462;-76
2023/12/18 09:50:40;;;;;;;10.63;5.20;;;8.50;99.90;;;;;;4985815;28;20089;-77
2023/12/18 09:53:10;;;;;;;13.93;4.88;;;8.50;99.90;;;;;;4962808;28;20500;-78
2023/12/18 09:55:36;;;;;;;16.67;5.57;;;8.60;99.90;;;;;;4954676;28;20062;-78
2023/12/18 09:58:02;;;;;;;14.57;4.90;;;8.70;99.90;;;;;;4972309;28;20034;-78
2023/12/18 10:00:29;;;;;;;12.13;5.13;;;8.70;99.90;;;;;;4976328;28;20109;-78
2023/12/18 10:02:56;;;;;;;11.82;4.70;;;8.80;99.90;;;;;;4982656;28;20051;-77
2023/12/18 10:05:22;;;;;;;17.00;5.45;;;8.90;99.90;;;;;;4970079;28;20466;-77
2023/12/18 10:07:48;;;;;;;15.73;6.00;;;9.00;99.90;;;;;;4984679;28;20077;-78
2023/12/18 10:10:15;;;;;;;10.75;4.85;;;9.10;99.90;;;;;;4982637;28;20026;-76
2023/12/18 10:12:40;;;;;;;16.15;6.50;;;9.10;99.90;;;;;;4974392;28;20555;-79
2023/12/18 10:15:14;;;;;;;14.95;5.57;;;9.20;99.90;;;;;;4968716;28;20067;-77
2023/12/18 10:17:41;;;;;;;14.95;6.47;;;9.20;99.90;;;;;;4975682;28;20397;-79
2023/12/18 10:20:08;;;;;;;19.67;5.32;;;9.20;99.90;;;;;;4989040;28;20478;-78
2023/12/18 10:22:34;;;;;;;16.65;4.75;;;9.30;99.90;;;;;;4988535;28;20034;-77
2023/12/18 10:25:01;;;;;;;14.80;4.40;;;9.20;99.90;;;;;;4988793;28;20038;-78
2023/12/18 10:27:33;;;;;;;21.08;4.80;;;9.20;99.90;;;;;;4990572;28;20031;-80
2023/12/18 10:30:00;;;;;;;18.02;6.75;;;9.20;99.90;;;;;;4980980;28;20042;-78
2023/12/18 10:32:28;;;;;;;11.68;5.68;;;9.10;99.90;;;;;;4979630;28;20150;-78
2023/12/18 10:34:55;;;;;;;11.90;4.97;;;9.20;99.90;;;;;;4973651;28;20038;-78
2023/12/18 10:37:22;;;;;;;18.73;4.97;;;9.30;99.90;;;;;;4987670;28;20814;-79
2023/12/18 10:39:51;;;;;;;12.90;5.55;;;9.20;99.90;;;;;;4969508;28;20498;-78
2023/12/18 10:42:37;;;;;;;16.05;6.07;;;9.20;99.90;;;;;;4990008;28;20038;-78
2023/12/18 10:45:06;;;;;;;14.75;4.68;;;9.20;99.90;;;;;;4971933;28;20089;-78
2023/12/18 10:47:32;;;;;;;11.82;4.45;;;9.30;99.90;;;;;;4971268;28;20571;-77
2023/12/18 10:50:03;;;;;;;10.75;4.90;;;9.30;99.90;;;;;;4969164;28;20120;-78
2023/12/18 10:52:30;;;;;;;9.90;4.78;;;9.40;99.90;;;;;;4977551;28;20045;-78
2023/12/18 10:55:07;;;;;;;13.77;5.25;;;9.30;99.90;;;;;;4988404;28;20121;-77
2023/12/18 10:57:35;;;;;;;19.00;6.85;;;9.40;99.90;;;;;;4978748;28;20399;-77
2023/12/18 11:00:01;;;;;;;14.25;5.50;;;9.30;99.90;;;;;;4973859;28;20034;-77
2023/12/18 11:02:28;;;;;;;15.95;5.43;;;9.30;99.90;;;;;;4977491;28;20034;-80
2023/12/18 11:04:57;;;;;;;13.07;5.05;;;9.30;99.90;;;;;;4974007;28;20121;-77
2023/12/18 11:07:24;;;;;;;13.40;5.47;;;9.40;99.90;;;;;;4980224;28;20102;-78
2023/12/18 11:09:52;;;;;;;11.45;4.85;;;9.40;99.90;;;;;;4984404;28;20071;-79
2023/12/18 11:12:19;;;;;;;18.90;5.85;;;9.40;99.90;;;;;;4977395;28;20041;-78
2023/12/18 11:15:08;;;;;;;21.80;6.10;;;9.40;99.90;;;;;;4987873;28;20049;-76
2023/12/18 11:17:43;;;;;;;16.42;5.30;;;9.40;99.90;;;;;;4957899;28;20047;-75
2023/12/18 11:20:33;;;;;;;10.60;4.50;;;9.50;99.90;;;;;;4990473;28;20122;-78
2023/12/18 11:23:00;;;;;;;18.90;6.57;;;9.50;99.90;;;;;;4986537;28;20074;-78
2023/12/18 11:25:32;;;;;;;25.05;5.80;;;9.50;99.90;;;;;;4990941;28;20061;-77
2023/12/18 11:28:04;;;;;;;17.90;5.45;;;9.50;99.90;;;;;;4990554;28;20053;-76
2023/12/18 11:30:34;;;;;;;13.10;4.80;;;9.60;99.90;;;;;;4972373;28;20506;-77
2023/12/18 11:33:09;;;;;;;16.08;5.43;;;9.60;99.90;;;;;;4982156;28;20034;-77
2023/12/18 11:35:36;;;;;;;16.27;5.70;;;9.70;99.90;;;;;;4992286;28;20038;-78
2023/12/18 11:38:13;;;;;;;16.52;5.10;;;9.70;99.90;;;;;;4992048;28;20045;-78
2023/12/18 11:40:43;;;;;;;15.75;5.75;;;9.60;99.90;;;;;;4992103;28;20122;-78
2023/12/18 11:43:14;;;;;;;10.43;4.70;;;9.70;99.90;;;;;;4990381;28;20114;-77
2023/12/18 11:45:42;;;;;;;19.83;6.00;;;9.70;99.90;;;;;;4974808;28;20037;-77
2023/12/18 11:48:13;;;;;;;21.92;5.57;;;9.70;99.90;;;;;;4987334;28;20067;-77
2023/12/18 11:50:38;;;;;;;18.58;7.07;;;9.70;99.90;;;;;;4971162;28;20041;-78
2023/12/18 11:53:32;;;;;;;15.63;5.53;;;9.70;99.90;;;;;;4988724;28;20026;-77
2023/12/18 11:55:58;;;;;;;13.10;4.88;;;9.80;99.90;;;;;;4960775;28;20053;-77
2023/12/18 11:58:27;;;;;;;13.25;6.07;;;9.80;99.90;;;;;;4991662;28;20154;-78
2023/12/18 12:00:55;;;;;;;19.85;5.63;;;9.80;99.90;;;;;;4990693;28;20042;-78
2023/12/18 12:03:22;;;;;;;16.52;4.93;;;9.80;99.90;;;;;;4983565;28;20513;-77
2023/12/18 12:05:48;;;;;;;15.48;4.88;;;9.80;99.90;;;;;;4970671;28;20073;-77
2023/12/18 12:08:15;;;;;;;19.02;5.00;;;9.80;99.90;;;;;;4971395;28;20840;-78
2023/12/18 12:10:42;;;;;;;15.18;5.65;;;9.70;99.90;;;;;;4990023;28;20038;-77
2023/12/18 12:13:16;;;;;;;9.95;5.25;;;9.70;99.90;;;;;;4990122;28;20129;-77
2023/12/18 12:15:41;;;;;;;23.63;5.20;;;9.70;99.90;;;;;;4991485;28;20049;-77
2023/12/18 12:18:07;;;;;;;19.85;5.25;;;9.70;99.90;;;;;;4991686;28;20038;-78
2023/12/18 12:20:33;;;;;;;13.27;5.50;;;9.70;99.90;;;;;;4991469;28;20069;-78
2023/12/18 12:22:59;;;;;;;13.30;5.05;;;9.70;99.90;;;;;;4986485;28;20038;-78
2023/12/18 12:25:25;;;;;;;11.75;4.70;;;9.70;99.90;;;;;;4973322;28;20034;-78
2023/12/18 12:27:51;;;;;;;14.75;4.80;;;9.70;99.90;;;;;;4989452;28;20069;-77
2023/12/18 12:30:17;;;;;;;16.05;6.60;;;9.60;99.90;;;;;;4968328;28;20558;-77
2023/12/18 12:32:44;;;;;;;14.38;5.38;;;9.60;99.90;;;;;;4987586;28;20136;-78
2023/12/18 12:35:11;;;;;;;16.52;5.53;;;9.70;99.90;;;;;;4991587;28;20394;-79
2023/12/18 12:37:37;;;;;;;11.25;5.15;;;9.60;99.90;;;;;;4991561;28;20046;-78
2023/12/18 12:40:05;;;;;;;15.10;5.18;;;9.60;99.90;;;;;;4990648;28;20397;-78
2023/12/18 12:42:32;;;;;;;15.65;5.88;;;9.60;99.90;;;;;;4988665;28;20081;-78
2023/12/18 12:44:58;;;;;;;13.10;4.97;;;9.60;99.90;;;;;;4976149;28;20094;-77